createdAt,value
2023-05-03T00:02:40.500Z,12.81
2023-05-03T00:05:26.445Z,12.77
2023-05-03T00:08:11.668Z,12.67
2023-05-03T00:11:00.564Z,12.55
2023-05-03T00:13:45.988Z,12.58
2023-05-03T00:16:31.195Z,12.57
2023-05-03T00:19:30.536Z,12.58
2023-05-03T00:22:16.396Z,12.57
2023-05-03T00:25:01.993Z,12.58
2023-05-03T00:27:47.016Z,12.55
2023-05-03T00:30:32.446Z,12.55
2023-05-03T00:33:17.829Z,12.54
2023-05-03T00:36:14.152Z,12.50
2023-05-03T00:38:59.428Z,12.47
2023-05-03T00:41:44.884Z,12.44
2023-05-03T00:44:30.669Z,12.36
2023-05-03T00:47:16.722Z,12.36
2023-05-03T00:50:02.743Z,12.24
2023-05-03T00:52:48.608Z,12.24
2023-05-03T00:55:34.745Z,12.27
2023-05-03T00:58:21.626Z,12.28
2023-05-03T01:01:07.776Z,12.29
2023-05-03T01:03:53.365Z,12.29
2023-05-03T01:06:38.675Z,12.30
2023-05-03T01:09:43.183Z,12.31
2023-05-03T01:12:40.908Z,12.31
2023-05-03T01:15:52.519Z,12.31
2023-05-03T01:18:40.232Z,12.31
2023-05-03T01:21:26.071Z,12.34
2023-05-03T01:24:20.126Z,12.34
2023-05-03T01:27:05.444Z,12.35
2023-05-03T01:29:51.302Z,12.35
2023-05-03T01:33:07.216Z,12.32
2023-05-03T01:35:58.631Z,12.20
2023-05-03T01:38:44.349Z,12.18
2023-05-03T01:41:30.828Z,12.22
2023-05-03T01:44:16.575Z,12.21
2023-05-03T01:47:02.157Z,12.21
2023-05-03T01:49:47.098Z,12.22
2023-05-03T01:52:32.650Z,12.13
2023-05-03T01:55:17.772Z,12.06
2023-05-03T01:58:03.232Z,12.02
2023-05-03T02:00:48.869Z,11.95
2023-05-03T02:03:34.616Z,11.95
2023-05-03T02:06:19.698Z,11.94
2023-05-03T02:09:04.960Z,12.00
2023-05-03T02:11:50.338Z,12.01
2023-05-03T02:14:35.845Z,11.95
2023-05-03T02:17:21.151Z,11.84
2023-05-03T02:20:09.805Z,11.81
2023-05-03T02:22:55.069Z,11.80
2023-05-03T02:25:41.508Z,11.73
2023-05-03T02:28:26.888Z,11.76
2023-05-03T02:31:13.602Z,11.79
2023-05-03T02:33:59.052Z,11.70
2023-05-03T02:36:44.032Z,11.67
2023-05-03T02:39:29.303Z,11.68
2023-05-03T02:42:14.714Z,11.73
2023-05-03T02:45:00.022Z,11.76
2023-05-03T02:47:45.525Z,11.73
2023-05-03T02:50:31.181Z,11.75
2023-05-03T02:53:16.544Z,11.80
2023-05-03T02:56:01.573Z,11.84
2023-05-03T02:58:46.792Z,11.90
2023-05-03T03:01:33.977Z,11.92
2023-05-03T03:04:19.840Z,11.93
2023-05-03T03:07:05.327Z,11.95
2023-05-03T03:09:50.497Z,11.96
2023-05-03T03:12:39.057Z,11.95
2023-05-03T03:15:24.398Z,11.83
2023-05-03T03:18:09.880Z,11.78
2023-05-03T03:20:54.982Z,11.76
2023-05-03T03:23:40.252Z,11.73
2023-05-03T03:26:26.213Z,11.67
2023-05-03T03:29:11.395Z,11.73
2023-05-03T03:31:57.406Z,11.78
2023-05-03T03:34:42.568Z,11.83
2023-05-03T03:37:27.993Z,11.86
2023-05-03T03:40:13.604Z,11.86
2023-05-03T03:42:58.858Z,11.83
2023-05-03T03:45:43.969Z,11.79
2023-05-03T03:48:29.272Z,11.75
2023-05-03T03:51:14.824Z,11.68
2023-05-03T03:54:00.247Z,11.70
2023-05-03T03:56:45.522Z,11.68
2023-05-03T03:59:30.900Z,11.60
2023-05-03T04:02:16.019Z,11.67
2023-05-03T04:05:01.386Z,11.70
2023-05-03T04:07:46.776Z,11.71
2023-05-03T04:10:32.200Z,11.64
2023-05-03T04:13:17.368Z,11.62
2023-05-03T04:16:04.609Z,11.61
2023-05-03T04:18:50.148Z,11.63
2023-05-03T04:21:35.401Z,11.66
2023-05-03T04:24:21.238Z,11.69
2023-05-03T04:27:06.821Z,11.65
2023-05-03T04:29:51.851Z,11.65
2023-05-03T04:32:37.563Z,11.65
2023-05-03T04:35:23.004Z,11.67
2023-05-03T04:38:09.805Z,11.55
2023-05-03T04:40:55.050Z,11.53
2023-05-03T04:43:40.747Z,11.49
2023-05-03T04:46:25.957Z,11.49
2023-05-03T04:49:11.146Z,11.46
2023-05-03T04:51:56.576Z,11.49
2023-05-03T04:54:41.803Z,11.56
2023-05-03T04:57:27.265Z,11.56
2023-05-03T05:00:13.738Z,11.57
2023-05-03T05:02:59.133Z,11.51
2023-05-03T05:05:44.246Z,11.57
2023-05-03T05:08:29.568Z,11.63
2023-05-03T05:11:14.968Z,11.68
2023-05-03T05:14:00.374Z,11.71
2023-05-03T05:16:45.995Z,11.68
2023-05-03T05:19:31.693Z,11.66
2023-05-03T05:22:16.913Z,11.71
2023-05-03T05:25:02.329Z,11.75
2023-05-03T05:27:47.674Z,11.79
2023-05-03T05:30:33.090Z,11.80
2023-05-03T05:33:19.359Z,11.78
2023-05-03T05:36:06.197Z,11.79
2023-05-03T05:38:51.531Z,11.80
2023-05-03T05:41:36.796Z,11.82
2023-05-03T05:44:22.122Z,11.76
2023-05-03T05:47:08.897Z,11.70
2023-05-03T05:49:54.350Z,11.67
2023-05-03T05:52:39.687Z,11.64
2023-05-03T05:55:25.220Z,11.63
2023-05-03T05:58:12.880Z,11.72
2023-05-03T06:01:01.294Z,11.76
2023-05-03T06:03:46.799Z,11.72
2023-05-03T06:06:32.456Z,11.74
2023-05-03T06:12:08.463Z,11.66
2023-05-03T06:15:02.276Z,11.65
2023-05-03T06:17:48.507Z,11.67
2023-05-03T06:20:33.828Z,11.71
2023-05-03T06:23:19.187Z,11.77
2023-05-03T06:26:04.426Z,11.82
2023-05-03T06:28:50.554Z,11.86
2023-05-03T06:31:35.781Z,11.89
2023-05-03T06:34:21.807Z,11.90
2023-05-03T06:37:06.948Z,11.90
2023-05-03T06:39:52.390Z,11.84
2023-05-03T06:42:37.691Z,11.88
2023-05-03T06:45:23.088Z,11.91
2023-05-03T06:48:08.783Z,11.93
2023-05-03T06:50:54.908Z,11.93
2023-05-03T06:53:39.982Z,11.95
2023-05-03T06:56:25.035Z,11.89
2023-05-03T06:59:10.559Z,11.85
2023-05-03T07:01:55.629Z,11.74
2023-05-03T07:04:40.959Z,11.68
2023-05-03T07:07:25.951Z,11.59
2023-05-03T07:10:11.380Z,11.60
2023-05-03T07:12:57.317Z,11.60
2023-05-03T07:15:42.353Z,11.62
2023-05-03T07:18:27.770Z,11.58
2023-05-03T07:21:16.202Z,11.65
2023-05-03T07:24:01.819Z,11.70
2023-05-03T07:26:49.022Z,11.71
2023-05-03T07:29:34.709Z,11.76
2023-05-03T07:32:19.865Z,11.77
2023-05-03T07:35:05.965Z,11.79
2023-05-03T07:37:51.105Z,11.85
2023-05-03T07:40:37.112Z,11.85
2023-05-03T07:43:23.702Z,11.87
2023-05-03T07:46:08.939Z,11.84
2023-05-03T07:48:54.158Z,11.82
2023-05-03T07:51:39.798Z,11.90
2023-05-03T07:54:24.791Z,11.95
2023-05-03T07:57:10.027Z,11.98
2023-05-03T07:59:55.720Z,11.79
2023-05-03T08:02:41.343Z,11.78
2023-05-03T08:05:26.531Z,11.75
2023-05-03T08:08:12.150Z,11.74
2023-05-03T08:10:57.468Z,11.73
2023-05-03T08:13:42.789Z,11.77
2023-05-03T08:16:28.201Z,11.84
2023-05-03T08:19:13.468Z,11.89
2023-05-03T08:21:59.008Z,11.91
2023-05-03T08:24:44.326Z,11.87
2023-05-03T08:27:29.904Z,11.90
2023-05-03T08:30:15.618Z,11.94
2023-05-03T08:33:00.914Z,11.89
2023-05-03T08:35:48.659Z,11.84
2023-05-03T08:38:36.592Z,11.81
2023-05-03T08:41:28.563Z,11.78
2023-05-03T08:44:22.743Z,11.76
2023-05-03T08:47:08.289Z,11.81
2023-05-03T08:49:53.928Z,11.86
2023-05-03T08:52:43.519Z,11.86
2023-05-03T08:55:28.757Z,11.75
2023-05-03T08:58:14.541Z,11.74
2023-05-03T09:01:05.095Z,11.67
2023-05-03T09:03:51.840Z,11.61
2023-05-03T09:06:37.911Z,11.50
2023-05-03T09:09:32.373Z,11.48
2023-05-03T09:12:37.127Z,11.55
2023-05-03T09:15:22.402Z,11.63
2023-05-03T09:18:18.645Z,11.60
2023-05-03T09:21:03.881Z,11.68
2023-05-03T09:23:49.250Z,11.78
2023-05-03T09:26:37.436Z,11.83
2023-05-03T09:29:34.458Z,11.89
2023-05-03T09:32:20.548Z,11.87
2023-05-03T09:35:13.729Z,11.84
2023-05-03T09:37:59.628Z,11.88
2023-05-03T09:40:48.349Z,11.94
2023-05-03T09:43:35.792Z,12.00
2023-05-03T09:46:21.440Z,12.05
2023-05-03T09:49:06.865Z,11.97
2023-05-03T09:51:52.739Z,11.86
2023-05-03T09:54:38.924Z,11.78
2023-05-03T09:57:24.715Z,11.76
2023-05-03T10:00:11.066Z,11.74
2023-05-03T10:03:00.225Z,11.71
2023-05-03T10:05:51.347Z,11.65
2023-05-03T10:08:42.743Z,11.55
2023-05-03T10:11:28.022Z,11.52
2023-05-03T10:14:13.030Z,11.51
2023-05-03T10:17:01.215Z,11.56
2023-05-03T10:19:57.926Z,11.60
2023-05-03T10:23:08.228Z,11.62
2023-05-03T10:26:05.971Z,11.65
2023-05-03T10:28:51.352Z,11.69
2023-05-03T10:31:47.424Z,11.69
2023-05-03T10:34:35.048Z,11.76
2023-05-03T10:37:27.129Z,11.85
2023-05-03T10:40:15.181Z,11.86
2023-05-03T10:43:00.940Z,11.89
2023-05-03T10:45:47.825Z,11.94
2023-05-03T10:48:34.879Z,11.90
2023-05-03T10:51:38.913Z,11.93
2023-05-03T10:54:24.241Z,11.92
2023-05-03T10:57:10.290Z,11.97
2023-05-03T10:59:55.572Z,12.08
2023-05-03T11:03:07.356Z,12.18
2023-05-03T11:05:53.733Z,12.26
2023-05-03T11:08:39.017Z,12.31
2023-05-03T11:11:24.253Z,12.31
2023-05-03T11:14:10.411Z,12.37
2023-05-03T11:16:57.496Z,12.39
2023-05-03T11:19:44.447Z,12.45
2023-05-03T11:22:29.565Z,12.42
2023-05-03T11:25:15.501Z,12.42
2023-05-03T11:28:02.070Z,12.43
2023-05-03T11:30:47.536Z,12.39
2023-05-03T11:33:35.214Z,12.39
2023-05-03T11:36:20.483Z,12.33
2023-05-03T11:39:05.997Z,12.15
2023-05-03T11:42:04.543Z,12.00
2023-05-03T11:44:49.814Z,11.83
2023-05-03T11:47:37.341Z,11.75
2023-05-03T11:50:54.416Z,11.71
2023-05-03T11:53:41.607Z,11.62
2023-05-03T11:56:27.639Z,11.62
2023-05-03T11:59:13.037Z,11.53
2023-05-03T12:01:58.420Z,11.54
2023-05-03T12:04:45.569Z,11.61
2023-05-03T12:07:31.797Z,11.54
2023-05-03T12:10:22.929Z,11.58
2023-05-03T12:13:13.234Z,11.68
2023-05-03T12:16:10.945Z,11.76
2023-05-03T12:19:03.153Z,11.79
2023-05-03T12:24:39.389Z,11.66
2023-05-03T12:27:26.810Z,11.64
2023-05-03T12:30:17.507Z,11.44
2023-05-03T12:33:04.895Z,11.18
2023-05-03T12:35:53.543Z,11.10
2023-05-03T12:38:42.040Z,10.99
2023-05-03T12:42:04.743Z,10.88
2023-05-03T12:44:42.160Z,10.74
2023-05-03T12:47:29.119Z,10.67
2023-05-03T12:50:18.251Z,10.67
2023-05-03T12:53:08.570Z,10.68
2023-05-03T12:55:58.331Z,10.65
2023-05-03T12:59:07.623Z,10.61
2023-05-03T13:07:29.512Z,10.45
2023-05-03T13:13:04.115Z,10.47
2023-05-03T13:15:49.661Z,10.49
2023-05-03T13:18:34.706Z,10.54
2023-05-03T13:21:20.091Z,10.61
2023-05-03T13:24:05.780Z,10.60
2023-05-03T13:26:51.155Z,10.69
2023-05-03T13:29:36.487Z,10.77
2023-05-03T13:32:21.972Z,10.77
2023-05-03T13:35:09.564Z,10.75
2023-05-03T13:37:55.106Z,10.84
2023-05-03T13:40:40.175Z,10.88
2023-05-03T13:43:25.674Z,10.91
2023-05-03T13:46:11.392Z,10.89
2023-05-03T13:48:56.633Z,10.86
2023-05-03T13:51:42.068Z,10.88
2023-05-03T13:54:27.357Z,10.84
2023-05-03T13:57:13.036Z,10.84
2023-05-03T13:59:58.280Z,10.92
2023-05-03T14:02:43.493Z,10.88
2023-05-03T14:05:29.504Z,10.80
2023-05-03T14:08:16.921Z,10.78
2023-05-03T14:11:04.686Z,10.72
2023-05-03T14:13:57.113Z,10.70
2023-05-03T14:16:42.750Z,10.72
2023-05-03T14:19:29.458Z,10.73
2023-05-03T14:22:14.597Z,10.79
2023-05-03T14:24:59.629Z,10.73
2023-05-03T14:27:45.567Z,10.75
2023-05-03T14:30:31.883Z,10.75
2023-05-03T14:33:17.598Z,10.78
2023-05-03T14:36:03.761Z,10.81
2023-05-03T14:38:49.070Z,10.79
2023-05-03T14:41:34.582Z,10.77
2023-05-03T14:44:20.546Z,10.77
2023-05-03T14:47:07.299Z,10.76
2023-05-03T14:49:52.584Z,10.73
2023-05-03T14:52:38.044Z,10.77
2023-05-03T14:55:23.304Z,10.77
2023-05-03T14:58:10.122Z,10.79
2023-05-03T15:00:55.474Z,10.83
2023-05-03T15:03:40.742Z,10.89
2023-05-03T15:06:31.663Z,10.77
2023-05-03T15:09:16.624Z,10.70
2023-05-03T15:12:03.899Z,10.70
2023-05-03T15:14:49.184Z,10.70
2023-05-03T15:17:34.169Z,10.76
2023-05-03T15:20:19.435Z,10.84
2023-05-03T15:23:05.092Z,10.84
2023-05-03T15:25:50.152Z,10.82
2023-05-03T15:28:35.427Z,10.78
2023-05-03T15:31:22.430Z,10.73
2023-05-03T15:34:08.175Z,10.67
2023-05-03T15:36:53.675Z,10.64
2023-05-03T15:39:38.954Z,10.68
2023-05-03T15:42:24.465Z,10.70
2023-05-03T15:45:10.568Z,10.66
2023-05-03T15:47:58.766Z,10.52
2023-05-03T15:50:44.833Z,10.47
2023-05-03T15:53:30.072Z,10.49
2023-05-03T15:56:16.094Z,10.61
2023-05-03T15:59:01.252Z,10.69
2023-05-03T16:01:47.345Z,10.76
2023-05-03T16:04:33.033Z,10.83
2023-05-03T16:07:18.469Z,10.85
2023-05-03T16:10:04.050Z,10.78
2023-05-03T16:12:50.188Z,10.77
2023-05-03T16:15:35.529Z,10.85
2023-05-03T16:18:20.990Z,10.89
2023-05-03T16:21:06.147Z,10.91
2023-05-03T16:23:52.075Z,10.83
2023-05-03T16:26:37.473Z,10.71
2023-05-03T16:29:22.446Z,10.58
2023-05-03T16:32:09.859Z,10.52
2023-05-03T16:34:55.542Z,10.56
2023-05-03T16:37:41.931Z,10.58
2023-05-03T16:40:27.544Z,10.61
2023-05-03T16:43:13.017Z,10.67
2023-05-03T16:46:01.827Z,10.65
2023-05-03T16:48:47.504Z,10.64
2023-05-03T16:51:33.645Z,10.58
2023-05-03T16:54:19.213Z,10.57
2023-05-03T16:57:04.616Z,10.51
2023-05-03T16:59:49.946Z,10.58
2023-05-03T17:02:39.680Z,10.66
2023-05-03T17:05:26.216Z,10.60
2023-05-03T17:08:12.022Z,10.54
2023-05-03T17:10:57.956Z,10.60
2023-05-03T17:13:43.197Z,10.66
2023-05-03T17:16:28.808Z,10.70
2023-05-03T17:19:14.687Z,10.74
2023-05-03T17:21:59.976Z,10.75
2023-05-03T17:24:45.277Z,10.75
2023-05-03T17:27:30.549Z,10.73
2023-05-03T17:30:16.470Z,10.73
2023-05-03T17:33:02.846Z,10.67
2023-05-03T17:35:48.132Z,10.62
2023-05-03T17:38:34.596Z,10.65
2023-05-03T17:41:19.874Z,10.68
2023-05-03T17:44:05.403Z,10.70
2023-05-03T17:46:51.661Z,10.73
2023-05-03T17:49:37.849Z,10.75
2023-05-03T17:52:23.121Z,10.76
2023-05-03T17:55:11.094Z,10.77
2023-05-03T17:57:56.293Z,10.74
2023-05-03T18:00:41.696Z,10.70
2023-05-03T18:03:27.461Z,10.70
2023-05-03T18:06:13.701Z,10.68
2023-05-03T18:08:58.734Z,10.69
2023-05-03T18:11:45.187Z,10.69
2023-05-03T18:14:30.752Z,10.69
2023-05-03T18:17:16.313Z,10.69
2023-05-03T18:20:02.150Z,10.64
2023-05-03T18:22:47.614Z,10.61
2023-05-03T18:25:32.907Z,10.57
2023-05-03T18:28:20.953Z,10.60
2023-05-03T18:31:06.052Z,10.61
2023-05-03T18:33:51.666Z,10.47
2023-05-03T18:36:39.155Z,10.49
2023-05-03T18:39:24.617Z,10.55
2023-05-03T18:42:10.618Z,10.57
2023-05-03T18:44:59.289Z,10.58
2023-05-03T18:47:44.433Z,10.57
2023-05-03T18:50:29.847Z,10.59
2023-05-03T18:53:15.174Z,10.58
2023-05-03T18:56:04.729Z,10.56
2023-05-03T18:58:50.274Z,10.54
2023-05-03T19:01:35.802Z,10.55
2023-05-03T19:04:21.084Z,10.54
2023-05-03T19:07:07.566Z,10.54
2023-05-03T19:09:54.593Z,10.52
2023-05-03T19:12:41.845Z,10.50
2023-05-03T19:15:28.750Z,10.50
2023-05-03T19:18:16.025Z,10.48
2023-05-03T19:21:02.831Z,10.47
2023-05-03T19:23:50.470Z,10.42
2023-05-03T19:26:36.114Z,10.35
2023-05-03T19:29:21.220Z,10.37
2023-05-03T19:32:07.761Z,10.38
2023-05-03T19:34:52.780Z,10.38
2023-05-03T19:37:38.380Z,10.31
2023-05-03T19:40:25.444Z,10.29
2023-05-03T19:43:12.190Z,10.30
2023-05-03T19:45:57.489Z,10.31
2023-05-03T19:48:43.095Z,10.33
2023-05-03T19:51:28.885Z,10.34
2023-05-03T19:54:14.055Z,10.33
2023-05-03T19:57:06.255Z,10.29
2023-05-03T19:59:51.622Z,10.28
2023-05-03T20:02:37.440Z,10.30
2023-05-03T20:05:22.954Z,10.30
2023-05-03T20:08:08.742Z,10.28
2023-05-03T20:10:55.691Z,10.25
2023-05-03T20:13:41.873Z,10.27
2023-05-03T20:16:32.382Z,10.29
2023-05-03T20:19:18.151Z,10.30
2023-05-03T20:22:03.545Z,10.29
2023-05-03T20:24:50.609Z,10.30
2023-05-03T20:27:37.149Z,10.29
2023-05-03T20:30:22.716Z,10.28
2023-05-03T20:33:08.195Z,10.27
2023-05-03T20:35:54.279Z,10.25
2023-05-03T20:38:39.469Z,10.23
2023-05-03T20:41:25.006Z,10.21
2023-05-03T20:44:10.104Z,10.21
2023-05-03T20:46:55.412Z,10.22
2023-05-03T20:49:40.754Z,10.21
2023-05-03T20:52:26.175Z,10.20
2023-05-03T20:55:11.837Z,10.22
2023-05-03T20:57:57.004Z,10.22
2023-05-03T21:00:42.398Z,10.23
2023-05-03T21:03:28.045Z,10.21
2023-05-03T21:06:13.554Z,10.14
2023-05-03T21:08:58.814Z,10.11
2023-05-03T21:11:44.495Z,10.06
2023-05-03T21:14:29.706Z,10.05
2023-05-03T21:17:15.266Z,10.10
2023-05-03T21:20:00.504Z,10.08
2023-05-03T21:22:45.950Z,10.08
2023-05-03T21:25:31.521Z,10.12
2023-05-03T21:28:17.285Z,10.16
2023-05-03T21:31:02.614Z,10.11
2023-05-03T21:33:47.853Z,10.07
2023-05-03T21:36:33.617Z,10.08
2023-05-03T21:39:20.615Z,10.09
2023-05-03T21:42:06.525Z,10.04
2023-05-03T21:44:51.683Z,10.05
2023-05-03T21:47:37.125Z,9.93
2023-05-03T21:50:23.637Z,9.97
2023-05-03T21:53:09.162Z,10.02
2023-05-03T21:55:54.428Z,10.00
2023-05-03T21:58:41.098Z,9.99
2023-05-03T22:01:26.205Z,9.98
2023-05-03T22:04:11.593Z,9.96
2023-05-03T22:06:57.416Z,9.97
2023-05-03T22:09:47.502Z,9.96
2023-05-03T22:12:33.337Z,9.95
2023-05-03T22:15:18.914Z,9.91
2023-05-03T22:18:05.022Z,9.90
2023-05-03T22:20:50.166Z,9.87
2023-05-03T22:23:35.486Z,9.87
2023-05-03T22:26:20.835Z,9.90
2023-05-03T22:29:06.047Z,9.88
2023-05-03T22:31:52.698Z,9.88
2023-05-03T22:34:38.134Z,9.84
2023-05-03T22:37:23.354Z,9.85
2023-05-03T22:40:12.020Z,9.82
2023-05-03T22:42:57.068Z,9.82
2023-05-03T22:45:43.184Z,9.81
2023-05-03T22:48:31.644Z,9.81
2023-05-03T22:51:17.123Z,9.77
2023-05-03T22:54:02.625Z,9.77
2023-05-03T22:56:47.632Z,9.76
2023-05-03T22:59:32.956Z,9.78
2023-05-03T23:02:18.172Z,9.77
2023-05-03T23:05:03.697Z,9.74
2023-05-03T23:07:49.073Z,9.73
2023-05-03T23:10:34.957Z,9.69
2023-05-03T23:13:20.195Z,9.72
2023-05-03T23:16:06.406Z,9.73
2023-05-03T23:18:53.518Z,9.73
2023-05-03T23:21:40.146Z,9.71
2023-05-03T23:24:25.510Z,9.69
2023-05-03T23:27:12.549Z,9.65
2023-05-03T23:29:58.135Z,9.62
2023-05-03T23:32:46.143Z,9.65
2023-05-03T23:35:32.010Z,9.69
2023-05-03T23:38:17.333Z,9.70
2023-05-03T23:41:02.790Z,9.68
2023-05-03T23:43:48.179Z,9.69
2023-05-03T23:46:33.905Z,9.68
2023-05-03T23:49:20.068Z,9.66
2023-05-03T23:52:05.092Z,9.66
2023-05-03T23:54:50.418Z,9.64
2023-05-03T23:57:36.045Z,9.63
